createdAt,value
2019-01-17T00:01:30.389Z,59.70
2019-01-17T00:04:20.703Z,59.19
2019-01-17T00:07:10.909Z,60.27
2019-01-17T00:09:48.828Z,59.63
2019-01-17T00:12:37.564Z,59.22
2019-01-17T00:15:25.835Z,60.65
2019-01-17T00:18:19.010Z,61.90
2019-01-17T00:21:07.926Z,62.41
2019-01-17T00:24:02.440Z,63.29
2019-01-17T00:26:39.221Z,64.16
2019-01-17T00:29:29.372Z,64.29
2019-01-17T00:32:26.011Z,63.88
2019-01-17T00:35:24.929Z,64.04
2019-01-17T00:38:13.571Z,65.14
2019-01-17T00:40:55.599Z,64.87
2019-01-17T00:43:45.908Z,65.08
2019-01-17T00:46:33.115Z,65.25
2019-01-17T00:49:17.153Z,65.79
2019-01-17T00:52:10.239Z,65.01
2019-01-17T00:55:10.346Z,65.64
2019-01-17T00:57:48.550Z,65.64
2019-01-17T01:00:50.892Z,62.71
2019-01-17T01:03:31.691Z,61.09
2019-01-17T01:06:34.271Z,60.80
2019-01-17T01:09:44.866Z,59.63
2019-01-17T01:12:36.157Z,59.43
2019-01-17T01:15:29.731Z,58.75
2019-01-17T01:18:28.735Z,59.06
2019-01-17T01:21:17.965Z,61.40
2019-01-17T01:24:15.417Z,60.71
2019-01-17T01:27:12.190Z,61.21
2019-01-17T01:30:00.938Z,61.21
2019-01-17T01:33:06.165Z,62.46
2019-01-17T01:36:11.320Z,63.18
2019-01-17T01:38:53.843Z,63.71
2019-01-17T01:41:40.956Z,64.03
2019-01-17T01:44:33.630Z,63.33
2019-01-17T01:47:32.878Z,64.31
2019-01-17T01:50:21.764Z,65.19
2019-01-17T01:53:11.805Z,66.61
2019-01-17T01:55:42.936Z,65.70
2019-01-17T01:58:14.008Z,64.02
2019-01-17T02:00:45.153Z,63.20
2019-01-17T02:03:16.133Z,63.85
2019-01-17T02:05:47.203Z,63.88
2019-01-17T02:08:18.337Z,64.58
2019-01-17T02:10:49.432Z,64.70
2019-01-17T02:13:20.586Z,64.87
2019-01-17T02:15:51.802Z,63.93
2019-01-17T02:18:22.778Z,62.53
2019-01-17T02:20:54.061Z,60.31
2019-01-17T02:23:25.157Z,58.93
2019-01-17T02:25:56.478Z,58.78
2019-01-17T02:28:27.647Z,57.32
2019-01-17T02:30:58.795Z,56.57
2019-01-17T02:33:29.924Z,56.04
2019-01-17T02:36:01.238Z,56.82
2019-01-17T02:38:32.348Z,56.37
2019-01-17T02:41:03.484Z,55.61
2019-01-17T02:43:34.596Z,56.13
2019-01-17T02:46:05.847Z,55.10
2019-01-17T02:48:36.931Z,55.30
2019-01-17T02:51:08.101Z,54.41
2019-01-17T02:53:39.235Z,54.81
2019-01-17T02:56:10.378Z,53.84
2019-01-17T02:58:41.576Z,54.39
2019-01-17T03:01:12.674Z,54.52
2019-01-17T03:03:43.715Z,55.10
2019-01-17T03:06:14.914Z,54.96
2019-01-17T03:08:46.102Z,54.36
2019-01-17T03:11:17.224Z,55.10
2019-01-17T03:13:48.353Z,55.85
2019-01-17T03:16:19.651Z,55.94
2019-01-17T03:18:50.766Z,56.44
2019-01-17T03:21:21.765Z,56.50
2019-01-17T03:23:53.482Z,56.98
2019-01-17T03:26:24.611Z,56.45
2019-01-17T03:28:55.715Z,56.80
2019-01-17T03:31:26.796Z,57.10
2019-01-17T03:33:57.891Z,57.18
2019-01-17T03:36:29.042Z,57.99
2019-01-17T03:39:00.434Z,58.69
2019-01-17T03:41:33.246Z,58.99
2019-01-17T03:44:04.419Z,58.47
2019-01-17T03:46:35.785Z,59.08
2019-01-17T03:49:06.998Z,59.58
2019-01-17T03:51:38.056Z,59.79
2019-01-17T03:54:09.147Z,59.83
2019-01-17T03:56:40.279Z,59.84
2019-01-17T03:59:11.387Z,60.03
2019-01-17T04:01:42.895Z,60.34
2019-01-17T04:04:14.022Z,60.89
2019-01-17T04:06:45.175Z,60.97
2019-01-17T04:09:16.279Z,61.05
2019-01-17T04:11:47.415Z,61.38
2019-01-17T04:14:19.435Z,60.97
2019-01-17T04:16:50.570Z,61.67
2019-01-17T04:19:21.653Z,61.62
2019-01-17T04:21:52.738Z,62.01
2019-01-17T04:24:23.892Z,62.19
2019-01-17T04:26:55.075Z,62.15
2019-01-17T04:29:26.227Z,62.30
2019-01-17T04:31:57.295Z,61.89
2019-01-17T04:34:28.423Z,62.41
2019-01-17T04:36:59.612Z,62.50
2019-01-17T04:39:31.647Z,62.43
2019-01-17T04:42:02.770Z,62.31
2019-01-17T04:44:33.903Z,62.95
2019-01-17T04:47:04.991Z,62.95
2019-01-17T04:49:36.009Z,63.18
2019-01-17T04:52:07.247Z,63.45
2019-01-17T04:54:38.569Z,63.33
2019-01-17T04:57:09.727Z,63.43
2019-01-17T04:59:40.848Z,63.48
2019-01-17T05:02:11.977Z,64.00
2019-01-17T05:04:43.171Z,63.71
2019-01-17T05:07:14.246Z,63.75
2019-01-17T05:09:45.440Z,63.59
2019-01-17T05:12:16.567Z,63.87
2019-01-17T05:14:47.750Z,63.74
2019-01-17T05:17:18.977Z,63.24
2019-01-17T05:19:50.122Z,63.64
2019-01-17T05:22:21.370Z,63.27
2019-01-17T05:24:52.617Z,63.18
2019-01-17T05:27:23.825Z,62.88
2019-01-17T05:29:54.830Z,63.02
2019-01-17T05:32:26.030Z,63.49
2019-01-17T05:34:57.015Z,62.67
2019-01-17T05:37:28.110Z,62.50
2019-01-17T05:39:59.240Z,63.06
2019-01-17T05:42:30.216Z,62.78
2019-01-17T05:45:01.264Z,63.41
2019-01-17T05:47:32.503Z,63.45
2019-01-17T05:50:04.367Z,63.59
2019-01-17T05:52:35.607Z,63.44
2019-01-17T05:55:07.081Z,63.33
2019-01-17T05:57:38.298Z,63.05
2019-01-17T06:00:14.999Z,62.83
2019-01-17T06:02:46.210Z,62.61
2019-01-17T06:05:18.207Z,62.95
2019-01-17T06:07:49.431Z,62.35
2019-01-17T06:10:20.637Z,62.79
2019-01-17T06:12:52.857Z,63.06
2019-01-17T06:15:24.838Z,63.01
2019-01-17T06:17:55.990Z,63.35
2019-01-17T06:20:28.239Z,62.96
2019-01-17T06:22:59.310Z,63.22
2019-01-17T06:25:30.396Z,63.29
2019-01-17T06:28:02.503Z,63.45
2019-01-17T06:30:33.662Z,63.69
2019-01-17T06:33:04.816Z,63.86
2019-01-17T06:35:35.802Z,64.11
2019-01-17T06:38:07.064Z,63.91
2019-01-17T06:40:38.197Z,63.78
2019-01-17T06:43:09.223Z,64.12
2019-01-17T06:45:40.380Z,64.56
2019-01-17T06:48:11.613Z,64.36
2019-01-17T06:50:42.688Z,64.09
2019-01-17T06:53:13.899Z,64.28
2019-01-17T06:55:45.063Z,63.77
2019-01-17T06:58:16.179Z,64.57
2019-01-17T07:00:47.313Z,64.66
2019-01-17T07:03:18.626Z,64.66
2019-01-17T07:05:49.834Z,64.97
2019-01-17T07:08:20.970Z,65.34
2019-01-17T07:10:52.065Z,65.64
2019-01-17T07:13:23.199Z,65.69
2019-01-17T07:15:54.220Z,66.13
2019-01-17T07:18:25.292Z,65.45
2019-01-17T07:20:56.587Z,64.97
2019-01-17T07:23:27.725Z,64.76
2019-01-17T07:25:58.992Z,64.55
2019-01-17T07:28:30.219Z,64.57
2019-01-17T07:31:01.370Z,64.92
2019-01-17T07:33:32.446Z,64.58
2019-01-17T07:36:03.577Z,64.70
2019-01-17T07:38:34.735Z,63.84
2019-01-17T07:41:05.891Z,63.71
2019-01-17T07:43:37.079Z,63.56
2019-01-17T07:46:08.241Z,63.73
2019-01-17T07:48:39.530Z,64.11
2019-01-17T07:51:10.658Z,63.69
2019-01-17T07:53:41.732Z,62.96
2019-01-17T07:56:12.815Z,62.59
2019-01-17T07:58:43.963Z,61.93
2019-01-17T08:01:15.190Z,61.63
2019-01-17T08:03:46.417Z,61.09
2019-01-17T08:06:17.569Z,59.90
2019-01-17T08:08:48.738Z,59.92
2019-01-17T08:11:19.934Z,59.36
2019-01-17T08:13:51.108Z,58.69
2019-01-17T08:16:22.167Z,58.09
2019-01-17T08:18:53.232Z,58.01
2019-01-17T08:21:26.060Z,57.76
2019-01-17T08:23:57.359Z,57.68
2019-01-17T08:26:28.581Z,57.21
2019-01-17T08:28:59.688Z,56.80
2019-01-17T08:31:30.864Z,56.15
2019-01-17T08:34:02.049Z,56.19
2019-01-17T08:36:33.247Z,56.14
2019-01-17T08:39:07.688Z,55.83
2019-01-17T08:41:38.754Z,55.75
2019-01-17T08:44:09.954Z,55.16
2019-01-17T08:46:41.007Z,55.50
2019-01-17T08:49:12.161Z,54.77
2019-01-17T08:51:43.233Z,54.89
2019-01-17T08:54:14.321Z,54.22
2019-01-17T08:56:45.459Z,53.27
2019-01-17T08:59:16.736Z,52.66
2019-01-17T09:01:47.850Z,52.15
2019-01-17T09:04:19.031Z,51.99
2019-01-17T09:06:50.189Z,51.29
2019-01-17T09:09:21.368Z,50.54
2019-01-17T09:11:52.569Z,50.42
2019-01-17T09:14:23.862Z,49.82
2019-01-17T09:16:54.939Z,50.13
2019-01-17T09:19:27.610Z,49.54
2019-01-17T09:21:58.682Z,49.29
2019-01-17T09:24:29.934Z,49.46
2019-01-17T09:27:01.056Z,49.58
2019-01-17T09:29:32.038Z,49.17
2019-01-17T09:32:03.190Z,48.92
2019-01-17T09:34:34.439Z,49.11
2019-01-17T09:37:05.770Z,48.60
2019-01-17T09:39:36.900Z,48.83
2019-01-17T09:42:08.054Z,48.08
2019-01-17T09:44:39.293Z,48.14
2019-01-17T09:47:10.414Z,48.27
2019-01-17T09:49:41.474Z,47.81
2019-01-17T09:52:12.610Z,47.59
2019-01-17T09:54:43.797Z,47.68
2019-01-17T09:57:14.764Z,47.63
2019-01-17T09:59:45.901Z,47.59
2019-01-17T10:02:17.048Z,47.90
2019-01-17T10:04:48.134Z,47.45
2019-01-17T10:07:19.184Z,46.59
2019-01-17T10:09:50.182Z,46.86
2019-01-17T10:12:21.296Z,47.04
2019-01-17T10:14:52.369Z,46.37
2019-01-17T10:17:40.294Z,46.14
2019-01-17T10:21:01.551Z,46.25
2019-01-17T10:24:15.645Z,46.37
2019-01-17T10:27:18.643Z,46.60
2019-01-17T10:30:25.603Z,46.85
2019-01-17T10:33:39.903Z,46.62
2019-01-17T10:36:48.445Z,46.76
2019-01-17T10:39:51.419Z,47.07
2019-01-17T10:42:52.866Z,46.67
2019-01-17T10:46:04.314Z,46.90
2019-01-17T10:49:28.594Z,46.45
2019-01-17T10:52:29.667Z,45.72
2019-01-17T10:55:58.169Z,45.63
2019-01-17T10:58:35.864Z,46.25
2019-01-17T11:01:35.678Z,46.00
2019-01-17T11:04:51.188Z,45.43
2019-01-17T11:07:43.791Z,45.07
2019-01-17T11:10:46.808Z,44.34
2019-01-17T11:13:50.371Z,45.48
2019-01-17T11:17:08.902Z,46.80
2019-01-17T11:20:18.253Z,47.42
2019-01-17T11:23:11.672Z,46.88
2019-01-17T11:26:01.535Z,46.87
2019-01-17T11:29:13.859Z,47.68
2019-01-17T11:32:09.384Z,48.48
2019-01-17T11:35:09.595Z,47.79
2019-01-17T11:38:16.059Z,47.98
2019-01-17T11:41:18.756Z,47.98
2019-01-17T11:44:34.069Z,48.40
2019-01-17T11:47:43.056Z,49.32
2019-01-17T11:50:55.121Z,49.72
2019-01-17T11:53:56.016Z,50.28
2019-01-17T11:57:09.796Z,50.38
2019-01-17T12:00:22.032Z,51.22
2019-01-17T12:03:20.321Z,51.78
2019-01-17T12:05:51.451Z,52.69
2019-01-17T12:08:22.625Z,53.72
2019-01-17T12:10:53.821Z,53.59
2019-01-17T12:13:24.872Z,53.64
2019-01-17T12:15:56.193Z,53.69
2019-01-17T12:18:27.412Z,53.04
2019-01-17T12:20:58.624Z,54.09
2019-01-17T12:23:29.867Z,55.07
2019-01-17T12:26:01.116Z,55.08
2019-01-17T12:28:32.307Z,55.62
2019-01-17T12:31:03.585Z,54.77
2019-01-17T12:33:34.804Z,55.47
2019-01-17T12:36:06.071Z,55.75
2019-01-17T12:38:37.172Z,56.02
2019-01-17T12:41:08.278Z,55.68
2019-01-17T12:43:39.535Z,56.27
2019-01-17T12:46:10.653Z,56.47
2019-01-17T12:48:42.470Z,57.11
2019-01-17T12:51:13.584Z,57.21
2019-01-17T12:53:45.009Z,57.31
2019-01-17T12:56:16.034Z,57.11
2019-01-17T12:58:47.084Z,57.26
2019-01-17T13:01:18.317Z,57.37
2019-01-17T13:03:49.314Z,58.23
2019-01-17T13:06:20.468Z,58.42
2019-01-17T13:08:51.623Z,58.76
2019-01-17T13:11:22.759Z,58.82
2019-01-17T13:13:53.971Z,59.52
2019-01-17T13:16:25.104Z,59.43
2019-01-17T13:18:56.185Z,59.53
2019-01-17T13:21:27.346Z,59.76
2019-01-17T13:23:58.475Z,59.62
2019-01-17T13:26:29.629Z,59.81
2019-01-17T13:29:00.762Z,60.16
2019-01-17T13:31:31.843Z,60.85
2019-01-17T13:34:03.027Z,60.78
2019-01-17T13:36:40.143Z,60.92
2019-01-17T13:39:08.164Z,61.61
2019-01-17T13:41:39.349Z,61.62
2019-01-17T13:44:10.459Z,61.58
2019-01-17T13:46:41.708Z,61.40
2019-01-17T13:49:12.828Z,61.84
2019-01-17T13:51:43.970Z,62.06
2019-01-17T13:54:15.137Z,62.34
2019-01-17T13:56:46.245Z,62.35
2019-01-17T13:59:17.412Z,61.63
2019-01-17T14:01:48.729Z,61.69
2019-01-17T14:04:19.861Z,62.43
2019-01-17T14:06:50.985Z,62.04
2019-01-17T14:09:22.139Z,61.81
2019-01-17T14:11:53.311Z,61.42
2019-01-17T14:14:24.465Z,61.58
2019-01-17T14:16:55.604Z,60.79
2019-01-17T14:19:26.776Z,61.52
2019-01-17T14:21:57.976Z,60.95
2019-01-17T14:24:29.054Z,60.16
2019-01-17T14:27:01.199Z,60.28
2019-01-17T14:29:32.294Z,61.07
2019-01-17T14:32:03.500Z,60.67
2019-01-17T14:34:34.671Z,60.38
2019-01-17T14:37:05.813Z,60.55
2019-01-17T14:39:36.983Z,60.86
2019-01-17T14:42:09.084Z,61.01
2019-01-17T14:44:40.181Z,60.96
2019-01-17T14:47:11.288Z,60.81
2019-01-17T14:49:42.363Z,61.04
2019-01-17T14:52:13.586Z,61.13
2019-01-17T14:54:44.612Z,61.09
2019-01-17T14:57:20.656Z,61.27
2019-01-17T14:59:48.660Z,61.53
2019-01-17T15:02:19.730Z,61.19
2019-01-17T15:04:50.781Z,61.37
2019-01-17T15:07:22.067Z,61.39
2019-01-17T15:09:53.075Z,61.74
2019-01-17T15:12:24.148Z,61.85
2019-01-17T15:14:55.312Z,62.14
2019-01-17T15:17:26.366Z,62.13
2019-01-17T15:19:57.492Z,61.91
2019-01-17T15:22:28.482Z,61.82
2019-01-17T15:24:59.597Z,61.82
2019-01-17T15:27:30.569Z,61.57
2019-01-17T15:30:01.789Z,61.45
2019-01-17T15:32:32.857Z,61.41
2019-01-17T15:35:05.306Z,60.95
2019-01-17T15:37:36.366Z,60.03
2019-01-17T15:40:10.827Z,60.11
2019-01-17T15:42:41.965Z,60.61
2019-01-17T15:45:13.142Z,60.11
2019-01-17T15:47:44.223Z,60.16
2019-01-17T15:50:15.741Z,60.20
2019-01-17T15:52:46.836Z,60.53
2019-01-17T15:55:18.598Z,60.98
2019-01-17T15:57:50.742Z,62.20
2019-01-17T16:00:27.955Z,62.92
2019-01-17T16:02:59.095Z,63.31
2019-01-17T16:05:30.282Z,63.85
2019-01-17T16:08:01.457Z,63.48
2019-01-17T16:10:32.585Z,63.63
2019-01-17T16:13:03.580Z,63.25
2019-01-17T16:15:34.807Z,63.30
2019-01-17T16:18:06.029Z,63.00
2019-01-17T16:20:37.178Z,63.18
2019-01-17T16:23:09.428Z,63.40
2019-01-17T16:25:40.597Z,63.70
2019-01-17T16:28:11.790Z,63.86
2019-01-17T16:30:42.845Z,63.65
2019-01-17T16:33:13.851Z,64.04
2019-01-17T16:35:45.014Z,64.33
2019-01-17T16:38:16.159Z,64.14
2019-01-17T16:40:49.799Z,63.91
2019-01-17T16:43:21.047Z,63.87
2019-01-17T16:45:52.231Z,63.46
2019-01-17T16:48:23.439Z,63.47
2019-01-17T16:50:54.597Z,63.59
2019-01-17T16:53:25.681Z,63.51
2019-01-17T16:55:56.695Z,63.01
2019-01-17T16:58:27.755Z,62.57
2019-01-17T17:00:59.162Z,62.81
2019-01-17T17:03:30.293Z,63.05
2019-01-17T17:06:01.443Z,63.14
2019-01-17T17:08:32.523Z,63.13
2019-01-17T17:11:03.617Z,63.69
2019-01-17T17:13:34.659Z,63.77
2019-01-17T17:16:05.816Z,64.20
2019-01-17T17:18:36.872Z,64.24
2019-01-17T17:21:08.037Z,64.15
2019-01-17T17:23:39.040Z,64.53
2019-01-17T17:26:10.199Z,64.51
2019-01-17T17:28:41.496Z,64.51
2019-01-17T17:31:12.646Z,64.60
2019-01-17T17:33:43.723Z,64.96
2019-01-17T17:36:14.926Z,65.32
2019-01-17T17:38:46.046Z,65.23
2019-01-17T17:41:17.496Z,65.72
2019-01-17T17:43:48.542Z,65.47
2019-01-17T17:46:19.600Z,65.58
2019-01-17T17:48:50.656Z,65.61
2019-01-17T17:51:21.770Z,65.97
2019-01-17T17:53:52.782Z,66.00
2019-01-17T17:56:23.867Z,65.27
2019-01-17T17:58:54.926Z,64.90
2019-01-17T18:01:32.276Z,65.15
2019-01-17T18:04:03.607Z,65.26
2019-01-17T18:06:34.819Z,65.46
2019-01-17T18:09:08.772Z,65.64
2019-01-17T18:11:39.918Z,65.54
2019-01-17T18:14:11.128Z,65.72
2019-01-17T18:16:42.244Z,65.73
2019-01-17T18:19:14.232Z,65.56
2019-01-17T18:21:46.422Z,65.48
2019-01-17T18:24:17.534Z,65.37
2019-01-17T18:26:48.777Z,65.52
2019-01-17T18:29:19.820Z,65.57
2019-01-17T18:31:50.972Z,65.30
2019-01-17T18:34:22.108Z,65.48
2019-01-17T18:36:53.534Z,64.30
2019-01-17T18:39:24.594Z,63.49
2019-01-17T18:41:55.685Z,63.82
2019-01-17T18:44:26.755Z,63.82
2019-01-17T18:46:57.838Z,64.54
2019-01-17T18:49:28.960Z,65.06
2019-01-17T18:52:00.316Z,65.25
2019-01-17T18:54:31.400Z,65.57
2019-01-17T18:57:02.547Z,65.51
2019-01-17T18:59:33.665Z,65.82
2019-01-17T19:02:04.911Z,66.09
2019-01-17T19:04:36.031Z,66.10
2019-01-17T19:07:07.184Z,66.43
2019-01-17T19:09:38.271Z,66.21
2019-01-17T19:12:09.252Z,66.29
2019-01-17T19:14:40.370Z,66.26
2019-01-17T19:17:11.606Z,66.23
2019-01-17T19:19:42.666Z,66.15
2019-01-17T19:22:14.003Z,66.09
2019-01-17T19:24:45.105Z,66.46
2019-01-17T19:27:16.197Z,66.28
2019-01-17T19:29:50.202Z,66.31
2019-01-17T19:32:21.431Z,66.49
2019-01-17T19:34:52.545Z,66.49
2019-01-17T19:37:23.623Z,66.35
2019-01-17T19:39:54.747Z,66.26
2019-01-17T19:42:26.703Z,66.32
2019-01-17T19:44:58.043Z,66.57
2019-01-17T19:47:29.570Z,66.43
2019-01-17T19:50:00.716Z,65.89
2019-01-17T19:52:31.855Z,66.23
2019-01-17T19:55:02.983Z,66.24
2019-01-17T19:57:34.154Z,65.88
2019-01-17T20:00:07.766Z,66.01
2019-01-17T20:02:40.678Z,66.03
2019-01-17T20:05:13.836Z,65.97
2019-01-17T20:07:45.967Z,65.59
2019-01-17T20:10:24.829Z,65.12
2019-01-17T20:12:56.003Z,64.89
2019-01-17T20:15:27.129Z,64.93
2019-01-17T20:17:58.191Z,64.75
2019-01-17T20:20:31.948Z,64.52
2019-01-17T20:23:03.142Z,64.25
2019-01-17T20:25:34.258Z,63.70
2019-01-17T20:28:06.498Z,63.78
2019-01-17T20:30:38.215Z,63.72
2019-01-17T20:33:09.841Z,63.69
2019-01-17T20:35:40.963Z,63.34
2019-01-17T20:38:12.065Z,63.35
2019-01-17T20:40:43.181Z,63.52
2019-01-17T20:43:14.320Z,62.96
2019-01-17T20:45:45.392Z,63.04
2019-01-17T20:48:16.809Z,63.08
2019-01-17T20:50:47.954Z,62.77
2019-01-17T20:53:19.240Z,62.84
2019-01-17T20:55:50.370Z,63.26
2019-01-17T20:58:21.391Z,62.98
2019-01-17T21:01:32.652Z,63.56
2019-01-17T21:04:05.238Z,63.09
2019-01-17T21:06:36.275Z,63.41
2019-01-17T21:09:10.982Z,63.02
2019-01-17T21:11:42.268Z,63.14
2019-01-17T21:14:13.457Z,62.87
2019-01-17T21:16:44.579Z,62.95
2019-01-17T21:19:15.751Z,63.10
2019-01-17T21:21:46.855Z,63.10
2019-01-17T21:24:19.001Z,62.77
2019-01-17T21:26:50.145Z,62.91
2019-01-17T21:29:21.162Z,62.43
2019-01-17T21:31:52.285Z,62.46
2019-01-17T21:34:23.456Z,62.29
2019-01-17T21:36:54.459Z,62.21
2019-01-17T21:39:26.123Z,62.01
2019-01-17T21:41:57.186Z,61.96
2019-01-17T21:44:28.154Z,62.06
2019-01-17T21:46:59.287Z,62.23
2019-01-17T21:49:30.603Z,62.39
2019-01-17T21:52:01.697Z,62.63
2019-01-17T21:54:33.006Z,62.76
2019-01-17T21:57:04.240Z,62.60
2019-01-17T21:59:35.463Z,62.26
2019-01-17T22:02:06.596Z,62.70
2019-01-17T22:04:37.662Z,63.04
2019-01-17T22:07:08.703Z,63.08
2019-01-17T22:09:39.943Z,63.67
2019-01-17T22:12:11.074Z,63.96
2019-01-17T22:14:42.131Z,64.04
2019-01-17T22:17:13.172Z,64.51
2019-01-17T22:19:45.228Z,63.99
2019-01-17T22:22:16.435Z,64.19
2019-01-17T22:24:47.623Z,64.84
2019-01-17T22:27:19.942Z,65.92
2019-01-17T22:29:50.979Z,64.73
2019-01-17T22:32:22.224Z,65.45
2019-01-17T22:34:53.350Z,65.74
2019-01-17T22:37:24.452Z,65.79
2019-01-17T22:39:55.464Z,64.73
2019-01-17T22:42:26.586Z,65.00
2019-01-17T22:44:57.653Z,65.50
2019-01-17T22:47:28.809Z,65.50
2019-01-17T22:49:59.815Z,65.66
2019-01-17T22:52:30.793Z,66.25
2019-01-17T22:55:01.904Z,65.75
2019-01-17T22:57:32.951Z,65.78
2019-01-17T23:00:06.642Z,65.87
2019-01-17T23:02:37.623Z,65.35
2019-01-17T23:05:08.773Z,65.38
2019-01-17T23:07:40.891Z,64.40
2019-01-17T23:10:12.259Z,64.97
2019-01-17T23:12:43.422Z,64.92
2019-01-17T23:15:14.610Z,65.04
2019-01-17T23:17:45.670Z,64.92
2019-01-17T23:20:17.094Z,65.32
2019-01-17T23:22:48.211Z,65.82
2019-01-17T23:25:19.361Z,65.87
2019-01-17T23:27:50.491Z,66.24
2019-01-17T23:30:21.615Z,65.39
2019-01-17T23:32:52.602Z,65.19
2019-01-17T23:35:23.724Z,65.43
2019-01-17T23:37:54.766Z,66.28
2019-01-17T23:40:25.847Z,66.43
2019-01-17T23:42:56.913Z,67.12
2019-01-17T23:45:28.059Z,67.66
2019-01-17T23:47:59.335Z,67.91
2019-01-17T23:50:30.534Z,68.19
2019-01-17T23:53:01.785Z,68.30
2019-01-17T23:55:32.782Z,68.46
2019-01-17T23:58:03.981Z,68.61
